sensor_id;sensor_type;location;lat;lon;timestamp;noise_LAeq;noise_LA_min;noise_LA_max;noise_LA01;noise_LA95
49215;Laerm;45943;53.148;8.204;2023-05-10T00:00:39;40.47;36.80;49.03;;
49215;Laerm;45943;53.148;8.204;2023-05-10T00:03:05;40.64;37.29;52.63;;
49215;Laerm;45943;53.148;8.204;2023-05-10T00:05:31;40.73;37.05;46.59;;
49215;Laerm;45943;53.148;8.204;2023-05-10T00:07:57;40.49;37.05;44.71;;
49215;Laerm;45943;53.148;8.204;2023-05-10T00:10:23;50.51;36.26;69.64;;
49215;Laerm;45943;53.148;8.204;2023-05-10T00:12:49;41.05;36.26;52.68;;
49215;Laerm;45943;53.148;8.204;2023-05-10T00:15:15;40.74;36.54;52.65;;
49215;Laerm;45943;53.148;8.204;2023-05-10T00:17:41;40.63;37.05;45.80;;
49215;Laerm;45943;53.148;8.204;2023-05-10T00:20:08;40.81;37.72;47.96;;
49215;Laerm;45943;53.148;8.204;2023-05-10T00:22:34;40.36;37.05;54.77;;
49215;Laerm;45943;53.148;8.204;2023-05-10T00:25:00;40.23;36.80;45.87;;
49215;Laerm;45943;53.148;8.204;2023-05-10T00:27:26;40.38;37.29;51.62;;
49215;Laerm;45943;53.148;8.204;2023-05-10T00:29:52;40.69;38.12;48.63;;
49215;Laerm;45943;53.148;8.204;2023-05-10T00:32:18;41.03;38.12;51.86;;
49215;Laerm;45943;53.148;8.204;2023-05-10T00:34:44;41.76;39.12;50.18;;
49215;Laerm;45943;53.148;8.204;2023-05-10T00:37:10;41.38;38.81;51.73;;
49215;Laerm;45943;53.148;8.204;2023-05-10T00:39:36;41.65;38.97;52.38;;
49215;Laerm;45943;53.148;8.204;2023-05-10T00:42:02;42.64;39.68;55.03;;
49215;Laerm;45943;53.148;8.204;2023-05-10T00:44:28;46.16;41.49;62.02;;
49215;Laerm;45943;53.148;8.204;2023-05-10T00:46:54;49.19;45.03;61.17;;
49215;Laerm;45943;53.148;8.204;2023-05-10T00:49:20;44.25;41.82;54.46;;
49215;Laerm;45943;53.148;8.204;2023-05-10T00:51:46;42.44;39.55;53.77;;
49215;Laerm;45943;53.148;8.204;2023-05-10T00:54:14;42.58;39.41;58.39;;
49215;Laerm;45943;53.148;8.204;2023-05-10T00:56:40;43.50;38.48;53.35;;
49215;Laerm;45943;53.148;8.204;2023-05-10T00:59:10;41.58;38.65;47.84;;
49215;Laerm;45943;53.148;8.204;2023-05-10T01:01:36;41.53;38.48;59.08;;
49215;Laerm;45943;53.148;8.204;2023-05-10T01:04:02;40.97;38.12;50.94;;
49215;Laerm;45943;53.148;8.204;2023-05-10T01:06:28;41.15;38.12;50.48;;
49215;Laerm;45943;53.148;8.204;2023-05-10T01:08:55;64.79;39.27;77.63;;
49215;Laerm;45943;53.148;8.204;2023-05-10T01:11:21;42.29;37.72;53.13;;
49215;Laerm;45943;53.148;8.204;2023-05-10T01:13:56;40.80;36.80;47.98;;
49215;Laerm;45943;53.148;8.204;2023-05-10T01:16:23;41.43;38.30;48.56;;
49215;Laerm;45943;53.148;8.204;2023-05-10T01:18:50;43.59;39.41;53.58;;
49215;Laerm;45943;53.148;8.204;2023-05-10T01:21:48;55.15;41.22;74.40;;
49215;Laerm;45943;53.148;8.204;2023-05-10T01:24:40;42.32;39.81;57.57;;
49215;Laerm;45943;53.148;8.204;2023-05-10T01:27:22;42.18;39.27;58.10;;
49215;Laerm;45943;53.148;8.204;2023-05-10T01:30:33;45.39;39.41;55.56;;
49215;Laerm;45943;53.148;8.204;2023-05-10T01:38:51;41.07;37.72;62.11;;
49215;Laerm;45943;53.148;8.204;2023-05-10T01:41:28;41.03;38.30;54.10;;
49215;Laerm;45943;53.148;8.204;2023-05-10T01:44:23;41.08;37.29;52.46;;
49215;Laerm;45943;53.148;8.204;2023-05-10T01:47:24;43.08;38.30;53.82;;
49215;Laerm;45943;53.148;8.204;2023-05-10T01:49:50;41.22;37.51;61.80;;
49215;Laerm;45943;53.148;8.204;2023-05-10T01:52:19;47.27;36.80;65.20;;
49215;Laerm;45943;53.148;8.204;2023-05-10T01:54:55;40.93;36.80;51.82;;
49215;Laerm;45943;53.148;8.204;2023-05-10T01:57:26;40.62;36.80;47.24;;
49215;Laerm;45943;53.148;8.204;2023-05-10T01:59:54;41.38;38.81;48.34;;
49215;Laerm;45943;53.148;8.204;2023-05-10T02:02:21;41.66;38.92;50.58;;
49215;Laerm;45943;53.148;8.204;2023-05-10T02:04:49;41.97;39.27;51.27;;
49215;Laerm;45943;53.148;8.204;2023-05-10T02:07:16;42.15;39.55;49.08;;
49215;Laerm;45943;53.148;8.204;2023-05-10T02:09:44;42.38;39.41;53.36;;
49215;Laerm;45943;53.148;8.204;2023-05-10T02:12:14;41.88;38.97;54.53;;
49215;Laerm;45943;53.148;8.204;2023-05-10T02:14:42;42.15;39.68;52.28;;
49215;Laerm;45943;53.148;8.204;2023-05-10T02:17:09;41.88;39.27;51.32;;
49215;Laerm;45943;53.148;8.204;2023-05-10T02:19:39;42.84;39.27;55.68;;
49215;Laerm;45943;53.148;8.204;2023-05-10T02:22:07;41.98;38.30;55.72;;
49215;Laerm;45943;53.148;8.204;2023-05-10T02:24:36;43.52;38.30;58.82;;
49215;Laerm;45943;53.148;8.204;2023-05-10T02:27:03;43.88;37.29;58.87;;
49215;Laerm;45943;53.148;8.204;2023-05-10T02:29:31;43.29;37.51;61.51;;
49215;Laerm;45943;53.148;8.204;2023-05-10T02:31:58;44.85;38.65;63.06;;
49215;Laerm;45943;53.148;8.204;2023-05-10T02:34:28;42.71;38.81;57.83;;
49215;Laerm;45943;53.148;8.204;2023-05-10T02:36:56;44.40;39.12;58.36;;
49215;Laerm;45943;53.148;8.204;2023-05-10T02:39:23;48.99;38.97;69.14;;
49215;Laerm;45943;53.148;8.204;2023-05-10T02:41:51;43.83;39.41;59.01;;
49215;Laerm;45943;53.148;8.204;2023-05-10T02:44:19;62.09;41.58;71.70;;
49215;Laerm;45943;53.148;8.204;2023-05-10T02:46:46;47.65;40.83;63.80;;
49215;Laerm;45943;53.148;8.204;2023-05-10T02:49:12;49.36;41.31;66.24;;
49215;Laerm;45943;53.148;8.204;2023-05-10T02:51:49;51.27;40.63;71.21;;
49215;Laerm;45943;53.148;8.204;2023-05-10T02:54:20;52.42;42.28;71.50;;
49215;Laerm;45943;53.148;8.204;2023-05-10T02:56:51;53.42;43.48;70.75;;
49215;Laerm;45943;53.148;8.204;2023-05-10T02:59:19;53.00;42.73;69.72;;
49215;Laerm;45943;53.148;8.204;2023-05-10T03:01:45;54.96;43.94;71.48;;
49215;Laerm;45943;53.148;8.204;2023-05-10T03:04:11;54.84;43.25;69.09;;
49215;Laerm;45943;53.148;8.204;2023-05-10T03:06:37;55.29;43.13;69.36;;
49215;Laerm;45943;53.148;8.204;2023-05-10T03:09:03;55.88;43.01;68.42;;
49215;Laerm;45943;53.148;8.204;2023-05-10T03:17:08;51.36;42.35;67.75;;
49215;Laerm;45943;53.148;8.204;2023-05-10T03:19:56;52.11;42.63;68.69;;
49215;Laerm;45943;53.148;8.204;2023-05-10T03:22:32;54.59;42.76;72.24;;
49215;Laerm;45943;53.148;8.204;2023-05-10T03:25:04;53.14;42.28;69.12;;
49215;Laerm;45943;53.148;8.204;2023-05-10T03:27:32;52.04;42.42;75.40;;
49215;Laerm;45943;53.148;8.204;2023-05-10T03:29:58;57.00;42.95;71.31;;
49215;Laerm;45943;53.148;8.204;2023-05-10T03:32:24;51.36;42.89;64.86;;
49215;Laerm;45943;53.148;8.204;2023-05-10T03:34:51;53.18;42.69;70.86;;
49215;Laerm;45943;53.148;8.204;2023-05-10T03:37:17;56.83;43.48;75.08;;
49215;Laerm;45943;53.148;8.204;2023-05-10T03:39:43;59.83;45.03;77.27;;
49215;Laerm;45943;53.148;8.204;2023-05-10T03:42:08;49.78;46.20;68.43;;
49215;Laerm;45943;53.148;8.204;2023-05-10T03:44:39;54.16;45.93;74.49;;
49215;Laerm;45943;53.148;8.204;2023-05-10T03:47:05;50.17;46.20;63.16;;
49215;Laerm;45943;53.148;8.204;2023-05-10T03:49:31;58.14;46.35;80.22;;
49215;Laerm;45943;53.148;8.204;2023-05-10T03:51:57;54.46;49.87;72.45;;
49215;Laerm;45943;53.148;8.204;2023-05-10T03:54:23;54.08;49.64;73.67;;
49215;Laerm;45943;53.148;8.204;2023-05-10T03:56:49;54.87;49.33;69.54;;
49215;Laerm;45943;53.148;8.204;2023-05-10T03:59:15;56.46;46.08;74.87;;
49215;Laerm;45943;53.148;8.204;2023-05-10T04:01:41;50.58;45.33;65.31;;
49215;Laerm;45943;53.148;8.204;2023-05-10T04:04:07;55.20;44.04;74.79;;
49215;Laerm;45943;53.148;8.204;2023-05-10T04:06:33;57.08;44.87;70.93;;
49215;Laerm;45943;53.148;8.204;2023-05-10T04:08:59;55.73;43.84;69.41;;
49215;Laerm;45943;53.148;8.204;2023-05-10T04:11:26;56.56;43.60;77.97;;
49215;Laerm;45943;53.148;8.204;2023-05-10T04:13:52;52.03;44.37;66.40;;
49215;Laerm;45943;53.148;8.204;2023-05-10T04:16:18;54.00;44.91;71.37;;
49215;Laerm;45943;53.148;8.204;2023-05-10T04:18:44;48.61;44.54;67.20;;
49215;Laerm;45943;53.148;8.204;2023-05-10T04:21:13;54.64;47.00;68.52;;
49215;Laerm;45943;53.148;8.204;2023-05-10T04:23:39;57.18;47.22;75.02;;
49215;Laerm;45943;53.148;8.204;2023-05-10T04:26:06;53.24;46.54;69.47;;
49215;Laerm;45943;53.148;8.204;2023-05-10T04:28:32;51.85;45.80;68.43;;
49215;Laerm;45943;53.148;8.204;2023-05-10T04:31:06;57.22;45.61;76.30;;
49215;Laerm;45943;53.148;8.204;2023-05-10T04:33:32;48.52;45.07;62.91;;
49215;Laerm;45943;53.148;8.204;2023-05-10T04:35:58;55.61;45.07;72.23;;
49215;Laerm;45943;53.148;8.204;2023-05-10T04:38:24;56.31;45.40;76.35;;
49215;Laerm;45943;53.148;8.204;2023-05-10T04:40:50;57.22;44.63;75.07;;
49215;Laerm;45943;53.148;8.204;2023-05-10T04:43:16;58.11;44.91;75.80;;
49215;Laerm;45943;53.148;8.204;2023-05-10T04:45:42;55.16;44.79;74.57;;
49215;Laerm;45943;53.148;8.204;2023-05-10T04:48:08;54.97;44.71;74.07;;
49215;Laerm;45943;53.148;8.204;2023-05-10T04:50:35;51.10;44.59;71.66;;
49215;Laerm;45943;53.148;8.204;2023-05-10T04:53:01;56.16;44.63;70.32;;
49215;Laerm;45943;53.148;8.204;2023-05-10T04:55:27;58.89;44.79;77.14;;
49215;Laerm;45943;53.148;8.204;2023-05-10T04:57:53;57.94;45.61;73.06;;
49215;Laerm;45943;53.148;8.204;2023-05-10T05:00:20;52.98;45.07;71.06;;
49215;Laerm;45943;53.148;8.204;2023-05-10T05:02:46;54.08;44.64;72.04;;
49215;Laerm;45943;53.148;8.204;2023-05-10T05:05:13;55.47;44.79;73.14;;
49215;Laerm;45943;53.148;8.204;2023-05-10T05:07:38;57.13;44.83;73.03;;
49215;Laerm;45943;53.148;8.204;2023-05-10T05:10:08;61.24;44.18;73.06;;
49215;Laerm;45943;53.148;8.204;2023-05-10T05:12:34;54.06;43.79;72.87;;
49215;Laerm;45943;53.148;8.204;2023-05-10T05:15:01;57.45;43.64;72.55;;
49215;Laerm;45943;53.148;8.204;2023-05-10T05:17:27;53.63;43.31;72.52;;
49215;Laerm;45943;53.148;8.204;2023-05-10T05:19:54;53.89;43.25;70.47;;
49215;Laerm;45943;53.148;8.204;2023-05-10T05:22:19;57.09;43.48;71.27;;
49215;Laerm;45943;53.148;8.204;2023-05-10T05:24:56;57.75;43.07;72.11;;
49215;Laerm;45943;53.148;8.204;2023-05-10T05:27:22;56.41;43.36;72.26;;
49215;Laerm;45943;53.148;8.204;2023-05-10T05:29:50;60.73;47.55;81.35;;
49215;Laerm;45943;53.148;8.204;2023-05-10T05:32:16;57.12;44.59;71.16;;
49215;Laerm;45943;53.148;8.204;2023-05-10T05:34:44;57.29;43.13;72.08;;
49215;Laerm;45943;53.148;8.204;2023-05-10T05:37:18;55.59;43.69;71.12;;
49215;Laerm;45943;53.148;8.204;2023-05-10T05:39:44;56.49;43.99;71.02;;
49215;Laerm;45943;53.148;8.204;2023-05-10T05:42:12;60.97;45.07;75.59;;
49215;Laerm;45943;53.148;8.204;2023-05-10T05:44:38;58.49;46.90;70.74;;
49215;Laerm;45943;53.148;8.204;2023-05-10T05:47:05;63.17;47.64;85.56;;
49215;Laerm;45943;53.148;8.204;2023-05-10T05:49:31;61.67;44.28;77.88;;
49215;Laerm;45943;53.148;8.204;2023-05-10T05:52:00;61.20;43.01;85.92;;
49215;Laerm;45943;53.148;8.204;2023-05-10T05:54:27;59.94;44.91;73.06;;
49215;Laerm;45943;53.148;8.204;2023-05-10T05:56:57;61.09;44.79;73.47;;
49215;Laerm;45943;53.148;8.204;2023-05-10T05:59:24;61.03;44.46;75.58;;
49215;Laerm;45943;53.148;8.204;2023-05-10T06:01:50;60.41;44.67;73.26;;
49215;Laerm;45943;53.148;8.204;2023-05-10T06:04:16;60.98;44.83;76.03;;
49215;Laerm;45943;53.148;8.204;2023-05-10T06:06:43;61.75;47.05;76.65;;
49215;Laerm;45943;53.148;8.204;2023-05-10T06:09:09;60.44;46.90;72.59;;
49215;Laerm;45943;53.148;8.204;2023-05-10T06:11:35;60.03;47.26;71.16;;
49215;Laerm;45943;53.148;8.204;2023-05-10T06:14:02;59.01;46.59;75.22;;
49215;Laerm;45943;53.148;8.204;2023-05-10T06:16:36;59.64;47.05;72.24;;
49215;Laerm;45943;53.148;8.204;2023-05-10T06:19:02;59.96;46.40;75.32;;
49215;Laerm;45943;53.148;8.204;2023-05-10T06:21:28;62.70;48.30;76.51;;
49215;Laerm;45943;53.148;8.204;2023-05-10T06:23:55;59.67;47.57;72.97;;
49215;Laerm;45943;53.148;8.204;2023-05-10T06:26:21;60.51;44.75;81.05;;
49215;Laerm;45943;53.148;8.204;2023-05-10T06:28:47;59.82;44.23;72.43;;
49215;Laerm;45943;53.148;8.204;2023-05-10T06:31:13;61.75;46.88;76.04;;
49215;Laerm;45943;53.148;8.204;2023-05-10T06:33:39;64.61;46.54;79.23;;
49215;Laerm;45943;53.148;8.204;2023-05-10T06:36:06;61.16;48.10;73.56;;
49215;Laerm;45943;53.148;8.204;2023-05-10T06:38:32;63.08;50.99;81.50;;
49215;Laerm;45943;53.148;8.204;2023-05-10T06:40:58;60.19;50.16;73.40;;
49215;Laerm;45943;53.148;8.204;2023-05-10T06:43:24;60.09;45.99;74.60;;
49215;Laerm;45943;53.148;8.204;2023-05-10T06:45:51;58.74;45.07;72.80;;
49215;Laerm;45943;53.148;8.204;2023-05-10T06:48:17;59.63;50.50;73.25;;
49215;Laerm;45943;53.148;8.204;2023-05-10T06:50:43;62.43;46.40;80.51;;
49215;Laerm;45943;53.148;8.204;2023-05-10T06:53:10;59.53;45.64;70.86;;
49215;Laerm;45943;53.148;8.204;2023-05-10T06:55:37;61.56;43.01;87.20;;
49215;Laerm;45943;53.148;8.204;2023-05-10T06:58:03;60.05;42.28;73.56;;
49215;Laerm;45943;53.148;8.204;2023-05-10T07:00:29;56.20;42.35;72.03;;
49215;Laerm;45943;53.148;8.204;2023-05-10T07:02:55;52.13;42.42;68.58;;
49215;Laerm;45943;53.148;8.204;2023-05-10T07:05:21;57.38;43.25;70.92;;
49215;Laerm;45943;53.148;8.204;2023-05-10T07:07:47;56.84;43.69;72.62;;
49215;Laerm;45943;53.148;8.204;2023-05-10T07:10:13;58.47;42.89;72.15;;
49215;Laerm;45943;53.148;8.204;2023-05-10T07:12:39;54.96;42.63;69.00;;
49215;Laerm;45943;53.148;8.204;2023-05-10T07:15:06;57.04;42.28;84.15;;
49215;Laerm;45943;53.148;8.204;2023-05-10T07:17:32;57.61;42.63;72.84;;
49215;Laerm;45943;53.148;8.204;2023-05-10T07:19:59;58.08;42.76;77.49;;
49215;Laerm;45943;53.148;8.204;2023-05-10T07:22:26;55.40;42.49;74.20;;
49215;Laerm;45943;53.148;8.204;2023-05-10T07:24:52;57.94;43.58;75.54;;
49215;Laerm;45943;53.148;8.204;2023-05-10T07:27:17;58.59;43.36;76.54;;
49215;Laerm;45943;53.148;8.204;2023-05-10T07:29:43;62.49;42.21;81.06;;
49215;Laerm;45943;53.148;8.204;2023-05-10T07:32:09;57.32;42.89;73.23;;
49215;Laerm;45943;53.148;8.204;2023-05-10T07:34:35;56.07;43.01;69.43;;
49215;Laerm;45943;53.148;8.204;2023-05-10T07:37:01;51.60;43.42;71.22;;
49215;Laerm;45943;53.148;8.204;2023-05-10T07:39:27;59.26;43.58;71.50;;
49215;Laerm;45943;53.148;8.204;2023-05-10T07:41:54;56.86;43.25;71.24;;
49215;Laerm;45943;53.148;8.204;2023-05-10T07:44:21;57.02;43.58;74.31;;
49215;Laerm;45943;53.148;8.204;2023-05-10T07:46:47;58.31;42.95;71.83;;
49215;Laerm;45943;53.148;8.204;2023-05-10T07:49:13;54.97;43.13;69.43;;
49215;Laerm;45943;53.148;8.204;2023-05-10T07:51:39;56.54;43.48;69.61;;
49215;Laerm;45943;53.148;8.204;2023-05-10T07:54:05;54.91;43.48;68.97;;
49215;Laerm;45943;53.148;8.204;2023-05-10T07:56:32;61.94;42.76;77.73;;
49215;Laerm;45943;53.148;8.204;2023-05-10T07:58:59;54.29;43.07;70.36;;
49215;Laerm;45943;53.148;8.204;2023-05-10T08:01:26;55.04;43.07;70.21;;
49215;Laerm;45943;53.148;8.204;2023-05-10T08:03:52;55.49;43.07;70.87;;
49215;Laerm;45943;53.148;8.204;2023-05-10T08:06:19;57.34;43.74;72.13;;
49215;Laerm;45943;53.148;8.204;2023-05-10T08:08:46;54.95;43.01;71.33;;
49215;Laerm;45943;53.148;8.204;2023-05-10T08:11:16;56.54;43.13;72.76;;
49215;Laerm;45943;53.148;8.204;2023-05-10T08:13:42;51.14;42.63;70.33;;
49215;Laerm;45943;53.148;8.204;2023-05-10T08:16:08;56.22;43.31;70.28;;
49215;Laerm;45943;53.148;8.204;2023-05-10T08:18:34;56.96;43.13;71.91;;
49215;Laerm;45943;53.148;8.204;2023-05-10T08:21:00;58.83;44.37;72.48;;
49215;Laerm;45943;53.148;8.204;2023-05-10T08:23:26;59.51;43.42;73.94;;
49215;Laerm;45943;53.148;8.204;2023-05-10T08:25:52;55.63;42.49;69.93;;
49215;Laerm;45943;53.148;8.204;2023-05-10T08:28:18;58.08;42.42;71.72;;
49215;Laerm;45943;53.148;8.204;2023-05-10T08:30:44;52.10;43.07;66.90;;
49215;Laerm;45943;53.148;8.204;2023-05-10T08:33:10;56.66;43.07;70.57;;
49215;Laerm;45943;53.148;8.204;2023-05-10T08:35:36;54.71;43.19;70.42;;
49215;Laerm;45943;53.148;8.204;2023-05-10T08:38:02;61.09;44.63;81.02;;
49215;Laerm;45943;53.148;8.204;2023-05-10T08:40:28;71.50;54.80;82.09;;
49215;Laerm;45943;53.148;8.204;2023-05-10T08:42:58;56.01;43.19;71.62;;
49215;Laerm;45943;53.148;8.204;2023-05-10T08:45:32;57.93;43.48;72.10;;
49215;Laerm;45943;53.148;8.204;2023-05-10T08:48:01;60.96;55.11;73.94;;
49215;Laerm;45943;53.148;8.204;2023-05-10T08:50:27;61.67;55.31;72.74;;
49215;Laerm;45943;53.148;8.204;2023-05-10T08:52:55;61.98;50.34;78.34;;
49215;Laerm;45943;53.148;8.204;2023-05-10T08:55:23;61.74;51.37;75.05;;
49215;Laerm;45943;53.148;8.204;2023-05-10T08:57:50;69.48;52.94;89.63;;
49215;Laerm;45943;53.148;8.204;2023-05-10T09:00:17;59.30;43.69;77.05;;
49215;Laerm;45943;53.148;8.204;2023-05-10T09:02:44;55.42;43.94;71.65;;
49215;Laerm;45943;53.148;8.204;2023-05-10T09:05:12;56.68;42.89;69.43;;
49215;Laerm;45943;53.148;8.204;2023-05-10T09:07:38;56.71;43.31;74.75;;
49215;Laerm;45943;53.148;8.204;2023-05-10T09:10:04;56.13;44.23;73.41;;
49215;Laerm;45943;53.148;8.204;2023-05-10T09:12:30;60.20;44.37;72.70;;
49215;Laerm;45943;53.148;8.204;2023-05-10T09:14:58;58.17;43.84;71.94;;
49215;Laerm;45943;53.148;8.204;2023-05-10T09:17:25;58.95;43.99;71.52;;
49215;Laerm;45943;53.148;8.204;2023-05-10T09:19:59;59.38;44.41;70.40;;
49215;Laerm;45943;53.148;8.204;2023-05-10T09:22:26;61.37;56.78;73.94;;
49215;Laerm;45943;53.148;8.204;2023-05-10T09:27:39;61.59;56.74;76.24;;
49215;Laerm;45943;53.148;8.204;2023-05-10T09:30:06;62.44;56.18;73.04;;
49215;Laerm;45943;53.148;8.204;2023-05-10T09:32:43;61.44;57.19;71.63;;
49215;Laerm;45943;53.148;8.204;2023-05-10T09:35:11;61.33;51.65;75.64;;
49215;Laerm;45943;53.148;8.204;2023-05-10T09:37:42;62.07;44.37;84.42;;
49215;Laerm;45943;53.148;8.204;2023-05-10T09:40:18;62.12;48.25;79.29;;
49215;Laerm;45943;53.148;8.204;2023-05-10T09:43:10;66.32;58.10;81.56;;
49215;Laerm;45943;53.148;8.204;2023-05-10T09:45:36;63.72;53.53;75.79;;
49215;Laerm;45943;53.148;8.204;2023-05-10T09:48:03;61.77;47.51;85.62;;
49215;Laerm;45943;53.148;8.204;2023-05-10T09:50:29;59.57;45.71;72.78;;
49215;Laerm;45943;53.148;8.204;2023-05-10T09:53:04;63.93;45.22;79.08;;
49215;Laerm;45943;53.148;8.204;2023-05-10T09:55:45;59.91;44.32;74.02;;
49215;Laerm;45943;53.148;8.204;2023-05-10T09:58:13;60.48;44.79;73.86;;
49215;Laerm;45943;53.148;8.204;2023-05-10T10:00:41;61.20;44.67;85.50;;
49215;Laerm;45943;53.148;8.204;2023-05-10T10:03:19;54.19;43.07;66.77;;
49215;Laerm;45943;53.148;8.204;2023-05-10T10:05:46;60.54;43.69;74.93;;
49215;Laerm;45943;53.148;8.204;2023-05-10T10:08:13;56.25;42.28;74.78;;
49215;Laerm;45943;53.148;8.204;2023-05-10T10:10:40;57.65;42.06;70.56;;
49215;Laerm;45943;53.148;8.204;2023-05-10T10:13:07;59.53;55.01;70.28;;
49215;Laerm;45943;53.148;8.204;2023-05-10T10:15:34;57.08;43.36;72.22;;
49215;Laerm;45943;53.148;8.204;2023-05-10T10:18:00;53.34;42.82;69.57;;
49215;Laerm;45943;53.148;8.204;2023-05-10T10:20:27;56.88;42.56;72.17;;
49215;Laerm;45943;53.148;8.204;2023-05-10T10:22:53;53.23;43.07;69.32;;
49215;Laerm;45943;53.148;8.204;2023-05-10T10:25:21;54.57;43.01;70.60;;
49215;Laerm;45943;53.148;8.204;2023-05-10T10:30:42;53.24;42.56;69.86;;
49215;Laerm;45943;53.148;8.204;2023-05-10T10:33:28;64.70;43.36;95.08;;
49215;Laerm;45943;53.148;8.204;2023-05-10T10:36:00;60.64;44.46;77.43;;
49215;Laerm;45943;53.148;8.204;2023-05-10T10:38:36;57.34;43.89;72.95;;
49215;Laerm;45943;53.148;8.204;2023-05-10T10:41:11;59.48;42.89;74.92;;
49215;Laerm;45943;53.148;8.204;2023-05-10T10:44:35;57.93;43.58;74.01;;
49215;Laerm;45943;53.148;8.204;2023-05-10T10:47:03;59.56;44.71;73.00;;
49215;Laerm;45943;53.148;8.204;2023-05-10T10:49:52;56.92;44.09;68.91;;
49215;Laerm;45943;53.148;8.204;2023-05-10T10:55:19;56.09;42.82;69.71;;
49215;Laerm;45943;53.148;8.204;2023-05-10T10:57:53;58.04;49.44;68.68;;
49215;Laerm;45943;53.148;8.204;2023-05-10T11:00:33;66.05;43.19;83.59;;
49215;Laerm;45943;53.148;8.204;2023-05-10T11:05:40;58.85;43.99;74.02;;
49215;Laerm;45943;53.148;8.204;2023-05-10T11:10:34;60.58;53.30;73.21;;
49215;Laerm;45943;53.148;8.204;2023-05-10T11:13:08;59.91;54.77;71.94;;
49215;Laerm;45943;53.148;8.204;2023-05-10T11:15:36;61.72;55.75;71.66;;
49215;Laerm;45943;53.148;8.204;2023-05-10T11:18:24;63.88;56.06;79.48;;
49215;Laerm;45943;53.148;8.204;2023-05-10T11:21:00;58.68;55.27;66.44;;
49215;Laerm;45943;53.148;8.204;2023-05-10T11:23:57;60.33;53.61;71.79;;
49215;Laerm;45943;53.148;8.204;2023-05-10T11:26:25;60.61;45.71;70.36;;
49215;Laerm;45943;53.148;8.204;2023-05-10T11:28:54;55.29;43.94;71.81;;
49215;Laerm;45943;53.148;8.204;2023-05-10T11:31:22;55.18;44.32;68.95;;
49215;Laerm;45943;53.148;8.204;2023-05-10T11:33:53;55.22;44.04;69.23;;
49215;Laerm;45943;53.148;8.204;2023-05-10T11:36:27;56.13;43.42;70.09;;
49215;Laerm;45943;53.148;8.204;2023-05-10T11:38:54;56.28;43.13;69.98;;
49215;Laerm;45943;53.148;8.204;2023-05-10T11:41:23;58.57;45.07;73.50;;
49215;Laerm;45943;53.148;8.204;2023-05-10T11:43:51;57.49;44.99;70.04;;
49215;Laerm;45943;53.148;8.204;2023-05-10T11:46:19;61.46;44.54;73.49;;
49215;Laerm;45943;53.148;8.204;2023-05-10T11:48:47;63.54;44.95;77.21;;
49215;Laerm;45943;53.148;8.204;2023-05-10T11:51:14;56.01;44.46;70.28;;
49215;Laerm;45943;53.148;8.204;2023-05-10T11:53:41;53.28;44.71;66.10;;
49215;Laerm;45943;53.148;8.204;2023-05-10T11:56:08;57.63;43.79;72.83;;
49215;Laerm;45943;53.148;8.204;2023-05-10T11:58:35;55.68;45.29;68.89;;
49215;Laerm;45943;53.148;8.204;2023-05-10T12:01:03;52.95;43.94;68.57;;
49215;Laerm;45943;53.148;8.204;2023-05-10T12:03:29;55.58;44.04;70.31;;
49215;Laerm;45943;53.148;8.204;2023-05-10T12:05:56;59.06;44.54;71.70;;
49215;Laerm;45943;53.148;8.204;2023-05-10T12:08:25;57.66;44.41;71.37;;
49215;Laerm;45943;53.148;8.204;2023-05-10T12:10:53;55.53;43.53;68.34;;
49215;Laerm;45943;53.148;8.204;2023-05-10T12:13:20;58.10;43.25;74.92;;
49215;Laerm;45943;53.148;8.204;2023-05-10T12:15:46;64.11;44.18;79.83;;
49215;Laerm;45943;53.148;8.204;2023-05-10T12:18:13;56.24;43.53;71.52;;
49215;Laerm;45943;53.148;8.204;2023-05-10T12:20:40;52.26;43.19;65.85;;
49215;Laerm;45943;53.148;8.204;2023-05-10T12:23:08;60.83;44.75;74.01;;
49215;Laerm;45943;53.148;8.204;2023-05-10T12:25:36;55.40;44.09;68.36;;
49215;Laerm;45943;53.148;8.204;2023-05-10T12:28:04;51.97;43.64;69.36;;
49215;Laerm;45943;53.148;8.204;2023-05-10T12:30:33;56.87;44.14;70.87;;
49215;Laerm;45943;53.148;8.204;2023-05-10T12:33:11;58.39;43.74;79.45;;
49215;Laerm;45943;53.148;8.204;2023-05-10T12:35:49;55.04;43.84;69.86;;
49215;Laerm;45943;53.148;8.204;2023-05-10T12:38:28;54.25;43.74;67.49;;
49215;Laerm;45943;53.148;8.204;2023-05-10T12:40:57;61.77;45.57;75.64;;
49215;Laerm;45943;53.148;8.204;2023-05-10T12:43:23;70.72;44.28;91.44;;
49215;Laerm;45943;53.148;8.204;2023-05-10T12:45:49;57.07;44.54;69.50;;
49215;Laerm;45943;53.148;8.204;2023-05-10T12:48:15;57.13;44.75;69.61;;
49215;Laerm;45943;53.148;8.204;2023-05-10T12:50:41;53.67;43.58;66.53;;
49215;Laerm;45943;53.148;8.204;2023-05-10T12:53:07;57.31;43.07;71.60;;
49215;Laerm;45943;53.148;8.204;2023-05-10T12:55:33;54.67;43.13;75.25;;
49215;Laerm;45943;53.148;8.204;2023-05-10T12:57:59;55.32;45.29;70.34;;
49215;Laerm;45943;53.148;8.204;2023-05-10T13:00:25;58.19;44.79;71.33;;
49215;Laerm;45943;53.148;8.204;2023-05-10T13:02:51;57.00;43.19;68.25;;
49215;Laerm;45943;53.148;8.204;2023-05-10T13:05:17;61.19;43.99;79.29;;
49215;Laerm;45943;53.148;8.204;2023-05-10T13:07:43;61.61;45.25;79.71;;
49215;Laerm;45943;53.148;8.204;2023-05-10T13:10:10;58.56;45.87;69.53;;
49215;Laerm;45943;53.148;8.204;2023-05-10T13:12:36;56.20;45.90;70.14;;
49215;Laerm;45943;53.148;8.204;2023-05-10T13:15:02;59.03;42.06;69.81;;
49215;Laerm;45943;53.148;8.204;2023-05-10T13:17:29;63.42;45.12;81.54;;
49215;Laerm;45943;53.148;8.204;2023-05-10T13:19:55;60.60;46.93;78.66;;
49215;Laerm;45943;53.148;8.204;2023-05-10T13:22:21;54.66;43.53;69.58;;
49215;Laerm;45943;53.148;8.204;2023-05-10T13:24:47;68.04;48.81;84.77;;
49215;Laerm;45943;53.148;8.204;2023-05-10T13:27:13;73.04;62.35;79.84;;
49215;Laerm;45943;53.148;8.204;2023-05-10T13:29:39;65.92;49.33;80.36;;
49215;Laerm;45943;53.148;8.204;2023-05-10T13:32:05;63.52;46.65;80.17;;
49215;Laerm;45943;53.148;8.204;2023-05-10T13:34:31;61.32;45.99;68.17;;
49215;Laerm;45943;53.148;8.204;2023-05-10T13:36:57;60.40;47.00;72.16;;
49215;Laerm;45943;53.148;8.204;2023-05-10T13:39:23;60.60;47.70;70.73;;
49215;Laerm;45943;53.148;8.204;2023-05-10T13:41:49;62.45;46.62;72.60;;
49215;Laerm;45943;53.148;8.204;2023-05-10T13:44:16;62.41;48.51;70.31;;
49215;Laerm;45943;53.148;8.204;2023-05-10T13:46:42;59.89;53.64;69.79;;
49215;Laerm;45943;53.148;8.204;2023-05-10T13:49:11;67.25;61.10;83.61;;
49215;Laerm;45943;53.148;8.204;2023-05-10T13:51:37;66.83;61.21;76.95;;
49215;Laerm;45943;53.148;8.204;2023-05-10T13:54:03;64.06;57.69;71.43;;
49215;Laerm;45943;53.148;8.204;2023-05-10T13:56:29;64.67;55.20;72.00;;
49215;Laerm;45943;53.148;8.204;2023-05-10T13:58:56;56.64;43.31;72.01;;
49215;Laerm;45943;53.148;8.204;2023-05-10T14:01:23;56.74;44.09;67.89;;
49215;Laerm;45943;53.148;8.204;2023-05-10T14:03:48;60.95;48.27;77.77;;
49215;Laerm;45943;53.148;8.204;2023-05-10T14:06:14;60.01;44.37;76.20;;
49215;Laerm;45943;53.148;8.204;2023-05-10T14:08:40;56.56;45.36;73.34;;
49215;Laerm;45943;53.148;8.204;2023-05-10T14:11:07;58.57;46.14;72.34;;
49215;Laerm;45943;53.148;8.204;2023-05-10T14:13:33;61.79;45.33;78.99;;
49215;Laerm;45943;53.148;8.204;2023-05-10T14:15:59;58.47;48.06;68.12;;